createdAt,value
2023-03-21T00:00:14.637Z,2.60
2023-03-21T00:00:35.698Z,2.40
2023-03-21T00:00:56.771Z,2.60
2023-03-21T00:01:17.897Z,3.20
2023-03-21T00:01:38.963Z,2.80
2023-03-21T00:02:00.073Z,2.50
2023-03-21T00:02:21.364Z,2.90
2023-03-21T00:02:42.559Z,2.50
2023-03-21T00:03:03.724Z,2.70
2023-03-21T00:03:24.932Z,2.40
2023-03-21T00:03:46.105Z,2.40
2023-03-21T00:04:07.273Z,2.60
2023-03-21T00:04:33.181Z,2.60
2023-03-21T00:04:58.497Z,2.50
2023-03-21T00:05:22.446Z,2.70
2023-03-21T00:05:43.558Z,2.70
2023-03-21T00:06:04.627Z,2.70
2023-03-21T00:06:25.822Z,2.60
2023-03-21T00:06:46.869Z,2.40
2023-03-21T00:07:07.962Z,2.60
2023-03-21T00:07:29.146Z,2.60
2023-03-21T00:07:50.220Z,2.60
2023-03-21T00:08:11.433Z,2.50
2023-03-21T00:08:32.522Z,2.30
2023-03-21T00:08:53.690Z,2.30
2023-03-21T00:09:14.815Z,2.80
2023-03-21T00:09:36.144Z,2.70
2023-03-21T00:10:05.140Z,2.80
2023-03-21T00:10:39.128Z,2.60
2023-03-21T00:10:51.167Z,3.00
2023-03-21T00:11:12.243Z,2.90
2023-03-21T00:11:33.403Z,2.80
2023-03-21T00:11:54.438Z,2.90
2023-03-21T00:12:15.550Z,2.90
2023-03-21T00:12:36.594Z,2.90
2023-03-21T00:12:57.941Z,2.90
2023-03-21T00:13:19.050Z,2.60
2023-03-21T00:13:40.094Z,2.50
2023-03-21T00:14:01.324Z,2.60
2023-03-21T00:14:22.449Z,2.40
2023-03-21T00:14:43.657Z,2.60
2023-03-21T00:15:04.898Z,2.50
2023-03-21T00:15:30.692Z,2.60
2023-03-21T00:16:06.058Z,2.80
2023-03-21T00:16:31.270Z,2.70
2023-03-21T00:16:47.324Z,2.70
2023-03-21T00:17:08.557Z,2.90
2023-03-21T00:17:29.732Z,2.40
2023-03-21T00:17:50.958Z,2.70
2023-03-21T00:18:12.088Z,2.60
2023-03-21T00:18:33.241Z,2.50
2023-03-21T00:18:54.326Z,2.40
2023-03-21T00:19:15.485Z,2.60
2023-03-21T00:19:36.850Z,3.00
2023-03-21T00:19:57.941Z,2.60
2023-03-21T00:20:19.009Z,2.40
2023-03-21T00:20:40.241Z,2.60
2023-03-21T00:21:35.305Z,2.30
2023-03-21T00:22:07.050Z,2.80
2023-03-21T00:22:22.368Z,2.60
2023-03-21T00:22:43.445Z,2.40
2023-03-21T00:23:04.544Z,2.40
2023-03-21T00:23:25.613Z,2.40
2023-03-21T00:23:46.670Z,2.50
2023-03-21T00:24:08.191Z,2.40
2023-03-21T00:24:29.687Z,2.40
2023-03-21T00:24:50.760Z,2.50
2023-03-21T00:25:11.843Z,2.70
2023-03-21T00:25:32.980Z,2.40
2023-03-21T00:25:54.036Z,2.80
2023-03-21T00:26:15.296Z,2.50
2023-03-21T00:26:36.387Z,2.40
2023-03-21T00:27:47.194Z,2.40
2023-03-21T00:28:18.632Z,2.30
2023-03-21T00:28:39.779Z,2.60
2023-03-21T00:29:00.922Z,2.50
2023-03-21T00:29:22.086Z,2.60
2023-03-21T00:29:43.171Z,2.40
2023-03-21T00:30:04.235Z,2.30
2023-03-21T00:30:25.340Z,2.50
2023-03-21T00:30:46.372Z,2.70
2023-03-21T00:31:07.456Z,2.60
2023-03-21T00:31:28.608Z,2.60
2023-03-21T00:31:49.656Z,2.60
2023-03-21T00:32:10.810Z,2.60
2023-03-21T00:32:33.971Z,2.40
2023-03-21T00:32:57.021Z,2.40
2023-03-21T00:33:22.584Z,2.60
2023-03-21T00:33:43.986Z,2.90
2023-03-21T00:34:05.099Z,3.10
2023-03-21T00:34:36.645Z,2.60
2023-03-21T00:35:38.266Z,2.30
2023-03-21T00:35:53.590Z,2.50
2023-03-21T00:36:02.484Z,2.60
2023-03-21T00:36:14.264Z,2.70
2023-03-21T00:36:35.551Z,2.50
2023-03-21T00:36:56.734Z,2.50
2023-03-21T00:37:17.815Z,2.50
2023-03-21T00:37:38.938Z,2.50
2023-03-21T00:38:00.019Z,2.70
2023-03-21T00:38:21.195Z,2.50
2023-03-21T00:38:42.342Z,2.50
2023-03-21T00:39:03.382Z,2.60
2023-03-21T00:39:24.465Z,2.50
2023-03-21T00:39:45.559Z,2.70
2023-03-21T00:40:08.656Z,2.60
2023-03-21T00:40:35.179Z,2.60
2023-03-21T00:40:58.196Z,2.40
2023-03-21T00:41:38.752Z,2.60
2023-03-21T00:41:48.047Z,2.60
2023-03-21T00:42:09.158Z,2.70
2023-03-21T00:42:30.360Z,2.50
2023-03-21T00:42:51.423Z,2.50
2023-03-21T00:43:12.494Z,2.40
2023-03-21T00:43:33.589Z,2.50
2023-03-21T00:43:54.622Z,2.40
2023-03-21T00:44:16.083Z,2.20
2023-03-21T00:44:37.211Z,2.60
2023-03-21T00:44:58.279Z,2.50
2023-03-21T00:45:19.347Z,2.70
2023-03-21T00:45:40.409Z,2.80
2023-03-21T00:46:01.483Z,2.50
2023-03-21T00:46:23.501Z,2.90
2023-03-21T00:46:57.459Z,2.90
2023-03-21T00:47:13.459Z,3.30
2023-03-21T00:47:34.706Z,3.10
2023-03-21T00:47:55.883Z,2.80
2023-03-21T00:48:17.034Z,2.50
2023-03-21T00:48:38.171Z,2.70
2023-03-21T00:48:59.207Z,2.90
2023-03-21T00:49:20.278Z,3.00
2023-03-21T00:49:41.345Z,2.90
2023-03-21T00:50:02.388Z,3.20
2023-03-21T00:50:23.489Z,3.10
2023-03-21T00:50:44.532Z,3.30
2023-03-21T00:51:05.620Z,3.00
2023-03-21T00:51:26.838Z,3.10
2023-03-21T00:51:47.886Z,3.00
2023-03-21T00:52:17.054Z,3.40
2023-03-21T00:52:40.983Z,3.00
2023-03-21T00:53:02.892Z,3.00
2023-03-21T00:53:23.961Z,3.00
2023-03-21T00:53:45.037Z,3.00
2023-03-21T00:54:06.079Z,3.00
2023-03-21T00:54:27.172Z,2.70
2023-03-21T00:54:48.256Z,2.90
2023-03-21T00:55:09.291Z,2.70
2023-03-21T00:55:30.360Z,2.70
2023-03-21T00:55:51.422Z,3.10
2023-03-21T00:56:12.510Z,2.90
2023-03-21T00:56:33.579Z,2.70
2023-03-21T00:56:54.646Z,2.80
2023-03-21T00:57:15.684Z,3.00
2023-03-21T00:57:39.582Z,3.10
2023-03-21T00:58:02.409Z,3.10
2023-03-21T00:58:23.688Z,2.70
2023-03-21T00:58:44.706Z,2.60
2023-03-21T00:59:05.798Z,2.60
2023-03-21T00:59:26.881Z,2.60
2023-03-21T00:59:47.928Z,2.70
2023-03-21T01:00:08.987Z,2.70
2023-03-21T01:00:30.156Z,3.00
2023-03-21T01:00:51.284Z,3.00
2023-03-21T01:01:12.401Z,3.00
2023-03-21T01:01:33.541Z,3.20
2023-03-21T01:01:54.714Z,2.50
2023-03-21T01:02:15.807Z,2.60
2023-03-21T01:02:36.838Z,2.80
2023-03-21T01:03:08.426Z,2.70
2023-03-21T01:03:25.690Z,2.90
2023-03-21T01:03:46.755Z,3.10
2023-03-21T01:04:07.868Z,3.00
2023-03-21T01:04:28.893Z,3.00
2023-03-21T01:04:49.959Z,3.00
2023-03-21T01:05:11.039Z,2.90
2023-03-21T01:05:32.085Z,2.90
2023-03-21T01:05:53.143Z,2.90
2023-03-21T01:06:14.201Z,2.90
2023-03-21T01:06:35.264Z,2.80
2023-03-21T01:06:56.330Z,3.00
2023-03-21T01:07:17.398Z,2.80
2023-03-21T01:07:38.442Z,2.80
2023-03-21T01:07:59.524Z,2.90
2023-03-21T01:08:28.021Z,3.00
2023-03-21T01:08:53.973Z,2.90
2023-03-21T01:09:14.555Z,2.60
2023-03-21T01:09:35.620Z,2.80
2023-03-21T01:09:56.667Z,2.90
2023-03-21T01:10:17.733Z,2.70
2023-03-21T01:10:38.817Z,2.80
2023-03-21T01:10:59.879Z,3.10
2023-03-21T01:11:20.934Z,3.30
2023-03-21T01:11:42.067Z,3.00
2023-03-21T01:12:03.131Z,3.00
2023-03-21T01:12:24.179Z,3.20
2023-03-21T01:12:45.238Z,3.10
2023-03-21T01:13:06.324Z,2.90
2023-03-21T01:13:27.402Z,2.80
2023-03-21T01:13:54.886Z,2.80
2023-03-21T01:14:22.553Z,2.80
2023-03-21T01:14:42.375Z,3.00
2023-03-21T01:15:03.457Z,2.70
2023-03-21T01:15:24.517Z,2.80
2023-03-21T01:15:45.574Z,2.70
2023-03-21T01:16:06.682Z,2.70
2023-03-21T01:16:27.779Z,3.10
2023-03-21T01:16:48.842Z,3.20
2023-03-21T01:17:09.901Z,3.00
2023-03-21T01:17:30.965Z,2.90
2023-03-21T01:17:52.025Z,2.90
2023-03-21T01:18:13.121Z,3.10
2023-03-21T01:18:34.181Z,3.30
2023-03-21T01:18:55.243Z,2.80
2023-03-21T01:19:24.952Z,3.10
2023-03-21T01:19:51.653Z,3.00
2023-03-21T01:20:10.244Z,3.10
2023-03-21T01:20:31.302Z,3.40
2023-03-21T01:20:52.359Z,3.30
2023-03-21T01:21:13.427Z,3.60
2023-03-21T01:21:34.505Z,3.40
2023-03-21T01:21:55.560Z,3.20
2023-03-21T01:22:16.606Z,3.20
2023-03-21T01:22:37.676Z,3.00
2023-03-21T01:22:58.724Z,3.20
2023-03-21T01:23:19.840Z,3.10
2023-03-21T01:23:40.883Z,2.90
2023-03-21T01:24:01.962Z,3.10
2023-03-21T01:24:23.020Z,3.10
2023-03-21T01:24:53.174Z,2.90
2023-03-21T01:25:21.874Z,2.90
2023-03-21T01:25:38.255Z,3.10
2023-03-21T01:25:59.369Z,3.00
2023-03-21T01:26:20.426Z,3.20
2023-03-21T01:26:41.478Z,3.20
2023-03-21T01:27:02.559Z,3.00
2023-03-21T01:27:23.624Z,3.10
2023-03-21T01:27:44.665Z,3.00
2023-03-21T01:28:05.725Z,3.00
2023-03-21T01:28:26.851Z,3.20
2023-03-21T01:28:47.917Z,3.30
2023-03-21T01:29:08.971Z,3.10
2023-03-21T01:29:30.061Z,3.10
2023-03-21T01:29:51.159Z,3.30
2023-03-21T01:30:20.296Z,3.30
2023-03-21T01:30:41.931Z,3.50
2023-03-21T01:31:03.210Z,3.40
2023-03-21T01:31:24.329Z,3.10
2023-03-21T01:31:45.535Z,3.20
2023-03-21T01:32:06.591Z,3.20
2023-03-21T01:32:27.656Z,3.10
2023-03-21T01:32:48.720Z,3.10
2023-03-21T01:33:09.777Z,3.20
2023-03-21T01:33:30.852Z,3.30
2023-03-21T01:33:51.915Z,3.30
2023-03-21T01:34:12.977Z,3.30
2023-03-21T01:34:34.041Z,3.30
2023-03-21T01:34:55.108Z,3.20
2023-03-21T01:35:16.157Z,3.10
2023-03-21T01:35:47.992Z,3.20
2023-03-21T01:36:12.856Z,3.10
2023-03-21T01:36:31.236Z,3.10
2023-03-21T01:36:52.296Z,3.50
2023-03-21T01:37:13.339Z,3.20
2023-03-21T01:37:34.394Z,3.30
2023-03-21T01:37:55.497Z,3.00
2023-03-21T01:38:16.576Z,3.40
2023-03-21T01:38:37.640Z,3.20
2023-03-21T01:38:58.698Z,3.40
2023-03-21T01:39:19.763Z,3.80
2023-03-21T01:39:40.833Z,3.40
2023-03-21T01:40:01.889Z,3.10
2023-03-21T01:40:22.953Z,3.40
2023-03-21T01:40:44.005Z,3.00
2023-03-21T01:41:17.080Z,3.40
2023-03-21T01:41:45.062Z,3.20
2023-03-21T01:41:59.026Z,3.10
2023-03-21T01:42:20.090Z,3.20
2023-03-21T01:42:41.181Z,3.40
2023-03-21T01:43:02.250Z,3.10
2023-03-21T01:43:23.294Z,3.20
2023-03-21T01:43:44.510Z,3.00
2023-03-21T01:44:05.578Z,3.20
2023-03-21T01:44:26.644Z,3.40
2023-03-21T01:44:47.710Z,3.00
2023-03-21T01:45:08.753Z,3.70
2023-03-21T01:45:29.872Z,3.20
2023-03-21T01:45:50.940Z,3.10
2023-03-21T01:46:12.031Z,3.10
2023-03-21T01:46:45.308Z,2.90
2023-03-21T01:47:15.427Z,2.90
2023-03-21T01:47:27.026Z,3.20
2023-03-21T01:47:48.119Z,3.00
2023-03-21T01:48:09.195Z,3.00
2023-03-21T01:48:30.269Z,3.10
2023-03-21T01:48:51.357Z,3.00
2023-03-21T01:49:12.413Z,3.10
2023-03-21T01:49:33.464Z,3.10
2023-03-21T01:49:54.525Z,3.30
2023-03-21T01:50:15.594Z,3.30
2023-03-21T01:50:36.647Z,3.00
2023-03-21T01:50:57.709Z,2.90
2023-03-21T01:51:18.792Z,3.10
2023-03-21T01:51:39.866Z,2.90
2023-03-21T01:52:06.558Z,3.40
2023-03-21T01:52:38.560Z,3.00
2023-03-21T01:52:54.938Z,3.60
2023-03-21T01:53:15.961Z,3.20
2023-03-21T01:53:37.019Z,3.40
2023-03-21T01:53:58.112Z,3.20
2023-03-21T01:54:19.162Z,3.10
2023-03-21T01:54:40.216Z,3.20
2023-03-21T01:55:01.270Z,3.40
2023-03-21T01:55:22.353Z,3.30
2023-03-21T01:55:43.402Z,3.30
2023-03-21T01:56:04.494Z,3.20
2023-03-21T01:56:25.543Z,3.40
2023-03-21T01:56:46.609Z,3.60
2023-03-21T01:57:07.660Z,3.70
2023-03-21T01:57:35.491Z,3.30
2023-03-21T01:58:05.278Z,3.30
2023-03-21T01:58:22.686Z,3.20
2023-03-21T01:58:43.725Z,3.10
2023-03-21T01:59:04.805Z,3.10
2023-03-21T01:59:25.878Z,3.20
2023-03-21T01:59:46.933Z,3.40
2023-03-21T02:00:07.978Z,3.60
2023-03-21T02:00:29.039Z,3.50
2023-03-21T02:00:50.147Z,3.20
2023-03-21T02:01:11.283Z,3.20
2023-03-21T02:01:32.311Z,3.00
2023-03-21T02:01:53.364Z,2.90
2023-03-21T02:02:14.432Z,3.40
2023-03-21T02:02:35.520Z,3.10
2023-03-21T02:03:06.139Z,3.20
2023-03-21T02:03:35.267Z,3.50
2023-03-21T02:03:50.953Z,3.50
2023-03-21T02:04:12.211Z,3.30
2023-03-21T02:04:33.242Z,3.60
2023-03-21T02:04:54.302Z,4.00
2023-03-21T02:05:15.370Z,3.50
2023-03-21T02:05:36.650Z,3.10
2023-03-21T02:05:58.062Z,3.40
2023-03-21T02:06:19.118Z,3.80
2023-03-21T02:06:40.182Z,3.90
2023-03-21T02:07:01.230Z,3.70
2023-03-21T02:07:22.281Z,3.10
2023-03-21T02:07:43.354Z,3.20
2023-03-21T02:08:04.404Z,4.00
2023-03-21T02:08:36.771Z,3.50
2023-03-21T02:08:52.447Z,3.20
2023-03-21T02:09:13.536Z,3.10
2023-03-21T02:09:34.600Z,3.20
2023-03-21T02:09:55.652Z,3.20
2023-03-21T02:10:16.710Z,3.20
2023-03-21T02:10:37.785Z,3.40
2023-03-21T02:10:58.842Z,3.50
2023-03-21T02:11:19.878Z,3.50
2023-03-21T02:11:40.932Z,3.30
2023-03-21T02:12:02.029Z,3.40
2023-03-21T02:12:23.076Z,3.20
2023-03-21T02:12:44.098Z,3.50
2023-03-21T02:13:05.175Z,3.30
2023-03-21T02:13:26.224Z,3.10
2023-03-21T02:13:48.754Z,3.30
2023-03-21T02:14:13.288Z,3.30
2023-03-21T02:14:34.448Z,3.40
2023-03-21T02:14:55.502Z,3.40
2023-03-21T02:15:16.560Z,3.70
2023-03-21T02:15:37.770Z,3.40
2023-03-21T02:15:58.890Z,3.40
2023-03-21T02:16:20.035Z,3.10
2023-03-21T02:16:41.181Z,2.90
2023-03-21T02:17:02.329Z,3.10
2023-03-21T02:17:23.370Z,3.50
2023-03-21T02:17:44.444Z,3.20
2023-03-21T02:18:05.484Z,3.40
2023-03-21T02:18:26.538Z,3.70
2023-03-21T02:18:47.602Z,3.50
2023-03-21T02:19:08.663Z,3.40
2023-03-21T02:19:37.221Z,3.20
2023-03-21T02:19:56.722Z,3.40
2023-03-21T02:20:17.772Z,3.30
2023-03-21T02:20:38.820Z,3.30
2023-03-21T02:20:59.882Z,3.10
2023-03-21T02:21:20.936Z,3.20
2023-03-21T02:21:42.019Z,3.00
2023-03-21T02:22:03.064Z,3.30
2023-03-21T02:22:24.131Z,3.60
2023-03-21T02:22:45.196Z,3.50
2023-03-21T02:23:06.243Z,3.10
2023-03-21T02:23:27.302Z,3.00
2023-03-21T02:23:48.360Z,2.90
2023-03-21T02:24:09.428Z,3.40
2023-03-21T02:24:30.481Z,3.60
2023-03-21T02:24:59.608Z,3.40
2023-03-21T02:25:22.020Z,3.40
2023-03-21T02:25:45.632Z,3.60
2023-03-21T02:26:06.710Z,3.30
2023-03-21T02:26:36.094Z,3.50
2023-03-21T02:27:03.420Z,3.40
2023-03-21T02:27:21.684Z,3.20
2023-03-21T02:27:42.742Z,3.10
2023-03-21T02:28:03.796Z,3.50
2023-03-21T02:28:24.871Z,3.50
2023-03-21T02:28:45.909Z,3.40
2023-03-21T02:29:06.973Z,3.50
2023-03-21T02:29:28.029Z,3.40
2023-03-21T02:29:49.114Z,3.40
2023-03-21T02:30:13.017Z,3.90
2023-03-21T02:30:45.837Z,3.50
2023-03-21T02:31:04.285Z,3.30
2023-03-21T02:31:25.358Z,3.60
2023-03-21T02:31:46.453Z,3.60
2023-03-21T02:32:20.028Z,3.60
2023-03-21T02:32:37.676Z,3.70
2023-03-21T02:32:58.989Z,3.60
2023-03-21T02:33:20.088Z,3.80
2023-03-21T02:33:41.141Z,3.50
2023-03-21T02:34:02.236Z,3.60
2023-03-21T02:34:23.279Z,3.80
2023-03-21T02:34:44.345Z,3.70
2023-03-21T02:35:05.413Z,3.60
2023-03-21T02:35:26.455Z,3.40
2023-03-21T02:35:54.203Z,3.70
2023-03-21T02:36:15.021Z,3.60
2023-03-21T02:36:36.113Z,3.70
2023-03-21T02:36:57.138Z,3.70
2023-03-21T02:37:18.224Z,3.90
2023-03-21T02:37:40.191Z,3.70
2023-03-21T02:38:01.262Z,2.90
2023-03-21T02:38:22.318Z,3.50
2023-03-21T02:38:43.382Z,3.60
2023-03-21T02:39:04.431Z,3.50
2023-03-21T02:39:25.514Z,3.80
2023-03-21T02:39:46.552Z,3.60
2023-03-21T02:40:07.616Z,3.60
2023-03-21T02:40:28.672Z,3.90
2023-03-21T02:40:49.744Z,3.60
2023-03-21T02:41:18.168Z,3.90
2023-03-21T02:41:40.474Z,3.80
2023-03-21T02:42:01.670Z,3.70
2023-03-21T02:42:22.723Z,3.50
2023-03-21T02:42:48.918Z,3.60
2023-03-21T02:43:22.199Z,3.70
2023-03-21T02:43:37.738Z,3.70
2023-03-21T02:43:58.779Z,4.00
2023-03-21T02:44:19.852Z,4.30
2023-03-21T02:44:40.902Z,3.70
2023-03-21T02:45:01.962Z,3.60
2023-03-21T02:45:23.026Z,3.80
2023-03-21T02:45:44.135Z,3.70
2023-03-21T02:46:05.214Z,3.90
2023-03-21T02:46:33.414Z,3.70
2023-03-21T02:47:03.179Z,3.50
2023-03-21T02:47:20.182Z,3.30
2023-03-21T02:47:41.308Z,3.70
2023-03-21T02:48:02.369Z,3.80
2023-03-21T02:48:29.225Z,3.90
2023-03-21T02:48:51.233Z,3.50
2023-03-21T02:49:12.324Z,3.50
2023-03-21T02:49:33.369Z,3.50
2023-03-21T02:49:54.443Z,3.60
2023-03-21T02:50:15.493Z,3.80
2023-03-21T02:50:36.865Z,4.00
2023-03-21T02:50:57.971Z,3.90
2023-03-21T02:51:19.053Z,3.50
2023-03-21T02:51:40.142Z,3.50
2023-03-21T02:52:12.147Z,4.10
2023-03-21T02:52:38.048Z,3.70
2023-03-21T02:52:55.110Z,3.60
2023-03-21T02:53:16.168Z,3.70
2023-03-21T02:53:37.223Z,3.80
2023-03-21T02:54:23.748Z,3.40
2023-03-21T02:54:38.285Z,3.50
2023-03-21T02:54:52.217Z,3.70
2023-03-21T02:55:13.263Z,3.70
2023-03-21T02:55:34.326Z,3.30
2023-03-21T02:55:55.405Z,3.80
2023-03-21T02:56:16.454Z,3.90
2023-03-21T02:56:37.557Z,3.80
2023-03-21T02:56:58.622Z,4.00
2023-03-21T02:57:19.674Z,4.00
2023-03-21T02:57:43.361Z,3.50
2023-03-21T02:58:12.956Z,3.40
2023-03-21T02:58:31.867Z,3.90
2023-03-21T02:58:52.942Z,3.80
2023-03-21T02:59:13.983Z,3.40
2023-03-21T02:59:39.400Z,3.70
2023-03-21T03:00:10.672Z,3.70
2023-03-21T03:00:28.979Z,4.00
2023-03-21T03:00:50.061Z,3.80
2023-03-21T03:01:11.178Z,3.80
2023-03-21T03:01:32.271Z,3.90
2023-03-21T03:01:53.376Z,3.70
2023-03-21T03:02:14.404Z,3.80
2023-03-21T03:02:35.464Z,3.80
2023-03-21T03:03:08.221Z,3.60
2023-03-21T03:03:33.313Z,3.70
2023-03-21T03:03:50.453Z,4.20
2023-03-21T03:04:11.569Z,3.80
2023-03-21T03:04:32.628Z,4.00
2023-03-21T03:04:53.669Z,4.10
2023-03-21T03:05:20.759Z,3.90
2023-03-21T03:05:41.698Z,3.90
2023-03-21T03:06:02.755Z,4.10
2023-03-21T03:06:23.825Z,3.90
2023-03-21T03:06:44.873Z,4.00
2023-03-21T03:07:05.970Z,3.80
2023-03-21T03:07:27.019Z,3.70
2023-03-21T03:07:48.090Z,3.80
2023-03-21T03:08:09.148Z,3.60
2023-03-21T03:08:41.330Z,4.00
2023-03-21T03:09:02.764Z,3.90
2023-03-21T03:09:24.142Z,4.10
2023-03-21T03:09:45.184Z,3.60
2023-03-21T03:10:06.239Z,3.70
2023-03-21T03:10:27.289Z,3.80
2023-03-21T03:10:48.368Z,3.90
2023-03-21T03:11:09.420Z,3.80
2023-03-21T03:11:30.458Z,3.80
2023-03-21T03:11:51.513Z,3.80
2023-03-21T03:12:12.593Z,3.80
2023-03-21T03:12:33.653Z,4.00
2023-03-21T03:12:54.719Z,3.60
2023-03-21T03:13:15.772Z,4.00
2023-03-21T03:13:36.833Z,3.90
2023-03-21T03:13:58.210Z,3.60
2023-03-21T03:14:40.011Z,4.40
2023-03-21T03:15:00.198Z,3.80
2023-03-21T03:15:13.174Z,3.70
2023-03-21T03:15:34.263Z,3.70
2023-03-21T03:15:55.327Z,3.70
2023-03-21T03:16:16.448Z,3.90
2023-03-21T03:16:37.498Z,3.70
2023-03-21T03:16:58.552Z,3.70
2023-03-21T03:17:19.790Z,3.60
2023-03-21T03:17:40.841Z,4.00
2023-03-21T03:18:01.901Z,3.80
2023-03-21T03:18:22.957Z,3.80
2023-03-21T03:18:44.042Z,3.70
2023-03-21T03:19:05.066Z,4.10
2023-03-21T03:19:26.120Z,4.30
2023-03-21T03:19:50.685Z,3.90
2023-03-21T03:20:16.522Z,3.50
2023-03-21T03:20:38.340Z,4.00
2023-03-21T03:20:59.436Z,4.00
2023-03-21T03:21:20.491Z,3.40
2023-03-21T03:21:41.538Z,3.90
2023-03-21T03:22:02.590Z,3.90
2023-03-21T03:22:23.687Z,3.60
2023-03-21T03:22:44.728Z,4.20
2023-03-21T03:23:05.796Z,4.20
2023-03-21T03:23:26.878Z,4.20
2023-03-21T03:23:47.915Z,3.80
2023-03-21T03:24:08.979Z,3.70
2023-03-21T03:24:30.034Z,3.80
2023-03-21T03:24:51.087Z,4.10
2023-03-21T03:25:21.263Z,3.90
2023-03-21T03:25:43.016Z,3.80
2023-03-21T03:26:04.570Z,4.20
2023-03-21T03:26:25.630Z,4.00
2023-03-21T03:26:46.691Z,3.60
2023-03-21T03:27:07.755Z,3.80
2023-03-21T03:27:28.827Z,3.90
2023-03-21T03:27:49.883Z,3.70
2023-03-21T03:28:10.990Z,3.90
2023-03-21T03:28:32.022Z,4.00
2023-03-21T03:28:53.072Z,4.30
2023-03-21T03:29:14.144Z,4.60
2023-03-21T03:29:35.188Z,4.10
2023-03-21T03:29:56.245Z,3.90
2023-03-21T03:30:17.323Z,4.30
2023-03-21T03:30:46.761Z,4.00
2023-03-21T03:31:09.641Z,3.80
2023-03-21T03:31:31.192Z,3.80
2023-03-21T03:31:52.246Z,3.90
2023-03-21T03:32:13.354Z,3.90
2023-03-21T03:32:34.408Z,4.00
2023-03-21T03:32:55.500Z,4.00
2023-03-21T03:33:16.549Z,4.30
2023-03-21T03:33:37.606Z,4.00
2023-03-21T03:33:58.672Z,3.80
2023-03-21T03:34:19.720Z,3.60
2023-03-21T03:34:40.797Z,3.80
2023-03-21T03:35:01.851Z,4.30
2023-03-21T03:35:22.916Z,4.40
2023-03-21T03:35:46.436Z,3.70
2023-03-21T03:36:10.900Z,3.90
2023-03-21T03:36:33.122Z,3.90
2023-03-21T03:36:54.487Z,4.10
2023-03-21T03:37:15.501Z,4.20
2023-03-21T03:37:36.572Z,4.10
2023-03-21T03:37:57.636Z,4.10
2023-03-21T03:38:18.693Z,4.00
2023-03-21T03:38:39.752Z,4.10
2023-03-21T03:39:00.823Z,4.00
2023-03-21T03:39:21.868Z,4.10
2023-03-21T03:39:42.929Z,4.10
2023-03-21T03:40:03.999Z,3.90
2023-03-21T03:40:25.033Z,3.80
2023-03-21T03:40:46.096Z,3.90
2023-03-21T03:41:07.170Z,4.20
2023-03-21T03:41:30.080Z,4.20
2023-03-21T03:42:10.117Z,3.80
2023-03-21T03:42:27.998Z,3.50
2023-03-21T03:42:48.076Z,3.60
2023-03-21T03:43:09.133Z,3.60
2023-03-21T03:43:30.191Z,3.80
2023-03-21T03:43:51.234Z,3.70
2023-03-21T03:44:12.295Z,3.80
2023-03-21T03:44:33.380Z,4.10
2023-03-21T03:44:54.402Z,3.60
2023-03-21T03:45:15.467Z,3.70
2023-03-21T03:45:36.552Z,3.70
2023-03-21T03:45:57.592Z,4.20
2023-03-21T03:46:18.703Z,3.90
2023-03-21T03:46:39.823Z,3.70
2023-03-21T03:47:00.892Z,3.90
2023-03-21T03:47:32.222Z,3.90
2023-03-21T03:47:56.703Z,3.80
2023-03-21T03:48:16.130Z,4.10
2023-03-21T03:48:37.220Z,3.80
2023-03-21T03:48:58.228Z,3.80
2023-03-21T03:49:19.288Z,3.70
2023-03-21T03:49:40.347Z,3.80
2023-03-21T03:50:01.444Z,4.00
2023-03-21T03:50:22.464Z,3.80
2023-03-21T03:50:43.525Z,3.80
2023-03-21T03:51:04.597Z,3.70
2023-03-21T03:51:25.636Z,4.20
2023-03-21T03:51:46.703Z,4.30
2023-03-21T03:52:07.780Z,4.00
2023-03-21T03:52:28.843Z,3.80
2023-03-21T03:52:56.185Z,3.50
2023-03-21T03:53:18.528Z,3.80
2023-03-21T03:53:39.818Z,4.20
2023-03-21T03:54:00.879Z,4.20
2023-03-21T03:54:21.945Z,4.10
2023-03-21T03:54:43.026Z,4.00
2023-03-21T03:55:04.062Z,4.20
2023-03-21T03:55:25.124Z,4.20
2023-03-21T03:55:46.173Z,4.00
2023-03-21T03:56:07.229Z,4.10
2023-03-21T03:56:28.278Z,4.10
2023-03-21T03:56:49.335Z,4.40
2023-03-21T03:57:10.404Z,4.10
2023-03-21T03:57:31.455Z,3.90
2023-03-21T03:57:52.518Z,3.60
2023-03-21T03:58:22.116Z,4.20
2023-03-21T03:58:45.653Z,3.80
2023-03-21T03:59:07.517Z,4.00
2023-03-21T03:59:28.600Z,4.10
2023-03-21T03:59:49.672Z,3.90
2023-03-21T04:00:10.696Z,4.10
2023-03-21T04:00:31.771Z,4.00
2023-03-21T04:00:52.835Z,4.20
2023-03-21T04:01:13.875Z,4.10
2023-03-21T04:01:35.029Z,4.10
2023-03-21T04:01:56.160Z,4.40
2023-03-21T04:02:17.545Z,4.20
2023-03-21T04:02:38.712Z,4.10
2023-03-21T04:02:59.898Z,4.20
2023-03-21T04:03:21.040Z,3.80
2023-03-21T04:03:49.841Z,3.90
2023-03-21T04:04:13.341Z,4.10
2023-03-21T04:04:34.757Z,4.10
2023-03-21T04:04:55.834Z,4.00
2023-03-21T04:05:16.896Z,4.20
2023-03-21T04:05:37.960Z,4.20
2023-03-21T04:05:59.013Z,3.90
2023-03-21T04:06:20.059Z,4.10
2023-03-21T04:06:41.126Z,4.40
2023-03-21T04:07:02.181Z,4.20
2023-03-21T04:07:23.231Z,4.10
2023-03-21T04:07:44.283Z,3.90
2023-03-21T04:08:05.344Z,4.10
2023-03-21T04:08:26.430Z,4.00
2023-03-21T04:08:47.635Z,4.30
2023-03-21T04:09:19.282Z,4.10
2023-03-21T04:09:44.023Z,4.20
2023-03-21T04:10:02.638Z,4.10
2023-03-21T04:10:23.704Z,3.90
2023-03-21T04:10:44.765Z,4.30
2023-03-21T04:11:05.852Z,4.00
2023-03-21T04:11:26.873Z,4.20
2023-03-21T04:11:47.944Z,4.50
2023-03-21T04:12:08.993Z,4.30
2023-03-21T04:12:30.087Z,4.00
2023-03-21T04:12:51.111Z,4.00
2023-03-21T04:13:12.165Z,4.20
2023-03-21T04:13:33.216Z,4.30
2023-03-21T04:13:54.450Z,4.10
2023-03-21T04:14:15.497Z,4.40
2023-03-21T04:14:44.489Z,4.50
2023-03-21T04:15:10.796Z,4.30
2023-03-21T04:15:30.508Z,4.00
2023-03-21T04:15:51.604Z,4.20
2023-03-21T04:16:12.752Z,4.60
2023-03-21T04:16:35.780Z,4.50
2023-03-21T04:16:56.924Z,4.20
2023-03-21T04:17:17.983Z,4.40
2023-03-21T04:17:39.034Z,4.10
2023-03-21T04:18:00.110Z,4.30
2023-03-21T04:18:21.140Z,4.10
2023-03-21T04:18:42.188Z,4.30
2023-03-21T04:19:03.287Z,4.10
2023-03-21T04:19:24.416Z,3.80
2023-03-21T04:19:45.678Z,3.80
2023-03-21T04:20:12.078Z,3.90
2023-03-21T04:20:37.289Z,4.20
2023-03-21T04:20:58.561Z,4.30
2023-03-21T04:21:19.610Z,4.10
2023-03-21T04:21:40.651Z,3.80
2023-03-21T04:22:01.748Z,3.70
2023-03-21T04:22:22.767Z,4.00
2023-03-21T04:22:43.825Z,4.50
2023-03-21T04:23:04.918Z,4.40
2023-03-21T04:23:25.945Z,4.40
2023-03-21T04:23:47.026Z,4.30
2023-03-21T04:24:08.104Z,4.40
2023-03-21T04:24:29.154Z,3.80
2023-03-21T04:24:50.253Z,3.90
2023-03-21T04:25:11.289Z,4.80
2023-03-21T04:25:34.134Z,4.40
2023-03-21T04:25:57.252Z,4.10
2023-03-21T04:26:18.427Z,3.90
2023-03-21T04:26:39.490Z,4.10
2023-03-21T04:27:00.552Z,4.50
2023-03-21T04:27:21.618Z,3.90
2023-03-21T04:27:42.663Z,4.10
2023-03-21T04:28:03.716Z,3.90
2023-03-21T04:28:24.770Z,3.90
2023-03-21T04:28:45.816Z,4.60
2023-03-21T04:29:06.877Z,4.40
2023-03-21T04:29:28.004Z,4.30
2023-03-21T04:29:49.054Z,4.20
2023-03-21T04:30:10.130Z,4.10
2023-03-21T04:30:31.159Z,4.30
2023-03-21T04:31:03.299Z,4.20
2023-03-21T04:31:25.606Z,4.10
2023-03-21T04:31:46.216Z,4.10
2023-03-21T04:32:07.322Z,4.20
2023-03-21T04:32:28.414Z,4.20
2023-03-21T04:32:49.464Z,4.30
2023-03-21T04:33:10.532Z,4.40
2023-03-21T04:33:31.601Z,4.30
2023-03-21T04:33:52.658Z,4.70
2023-03-21T04:34:13.729Z,4.60
2023-03-21T04:34:34.893Z,4.30
2023-03-21T04:34:55.969Z,4.20
2023-03-21T04:35:17.026Z,4.10
2023-03-21T04:35:38.183Z,4.10
2023-03-21T04:35:59.464Z,3.90
2023-03-21T04:36:20.542Z,4.30
2023-03-21T04:36:41.604Z,4.40
2023-03-21T04:37:02.650Z,4.20
2023-03-21T04:37:23.716Z,4.30
2023-03-21T04:37:44.768Z,4.40
2023-03-21T04:38:05.812Z,4.30
2023-03-21T04:38:26.897Z,4.10
2023-03-21T04:38:47.995Z,3.80
2023-03-21T04:39:09.077Z,3.80
2023-03-21T04:39:30.113Z,4.00
2023-03-21T04:39:51.234Z,4.00
2023-03-21T04:40:12.559Z,3.80
2023-03-21T04:40:33.672Z,3.80
2023-03-21T04:40:54.738Z,3.90
2023-03-21T04:41:15.805Z,4.50
2023-03-21T04:41:36.872Z,4.40
2023-03-21T04:41:57.938Z,3.80
2023-03-21T04:42:19.057Z,4.10
2023-03-21T04:42:40.106Z,4.20
2023-03-21T04:43:01.167Z,4.20
2023-03-21T04:43:22.254Z,4.10
2023-03-21T04:43:43.301Z,3.90
2023-03-21T04:44:04.357Z,4.00
2023-03-21T04:44:25.405Z,3.80
2023-03-21T04:44:46.476Z,4.10
2023-03-21T04:45:07.537Z,4.30
2023-03-21T04:45:28.643Z,4.60
2023-03-21T04:45:49.797Z,4.30
2023-03-21T04:46:10.888Z,4.60
2023-03-21T04:46:31.953Z,4.40
2023-03-21T04:46:52.998Z,4.40
2023-03-21T04:47:14.035Z,4.30
2023-03-21T04:47:35.105Z,4.30
2023-03-21T04:47:56.435Z,4.40
2023-03-21T04:48:17.518Z,4.50
2023-03-21T04:48:38.564Z,4.50
2023-03-21T04:48:59.619Z,4.40
2023-03-21T04:49:20.674Z,4.00
2023-03-21T04:49:41.726Z,4.00
2023-03-21T04:50:02.786Z,4.10
2023-03-21T04:50:24.043Z,4.20
2023-03-21T04:50:45.095Z,4.10
2023-03-21T04:51:06.151Z,3.90
2023-03-21T04:51:27.224Z,4.10
2023-03-21T04:51:48.280Z,4.30
2023-03-21T04:52:09.337Z,4.00